Time;durP1;ratioP1;P1;durP2;ratioP2;P2;SDS_P1;SDS_P2;PMS_P1;PMS_P2;Temp;Humidity;BMP_temperature;BMP_pressure;BME280_temperature;BME280_humidity;BME280_pressure;Samples;Min_cycle;Max_cycle;Signal;HPM_P1;HPM_P2
2021/09/09 00:02:10;;;;;;;;;;;;;;;21.15;100.00;98352.81;5075129;28;20022;-83
2021/09/09 00:04:39;;;;;;;;;;;;;;;21.29;100.00;98354.69;5058122;28;19924;-83
2021/09/09 00:07:06;;;;;;;;;;;;;;;21.33;100.00;98357.25;5057845;28;19963;-83
2021/09/09 00:09:34;;;;;;;;;;;;;;;21.46;100.00;98363.22;5041543;28;20390;-83
2021/09/09 00:12:01;;;;;;;;;;;;;;;21.41;100.00;98355.47;5074844;28;19924;-83
2021/09/09 00:14:29;;;;;;;;;;;;;;;21.15;100.00;98337.84;5075479;28;19977;-83
2021/09/09 00:16:57;;;;;;;;;;;;;;;20.18;100.00;98344.03;5057786;28;19931;-83
2021/09/09 00:19:25;;;;;;;;;;;;;;;20.74;100.00;98350.81;5092902;28;19931;-83
2021/09/09 00:21:52;;;;;;;;;;;;;;;20.75;100.00;98346.69;5092580;28;19924;-83
2021/09/09 00:24:20;;;;;;;;;;;;;;;20.39;100.00;98359.66;5054595;28;19924;-83
2021/09/09 00:26:48;;;;;;;;;;;;;;;20.93;100.00;98354.78;5068147;28;19970;-83
2021/09/09 00:29:16;;;;;;;;;;;;;;;21.14;100.00;98350.50;5074422;28;20035;-83
2021/09/09 00:31:44;;;;;;;;;;;;;;;21.24;100.00;98344.06;5091655;28;19959;-83
2021/09/09 00:34:11;;;;;;;;;;;;;;;20.96;100.00;98350.94;5092696;28;19986;-83
2021/09/09 00:36:38;;;;;;;;;;;;;;;20.33;100.00;98355.22;5054692;28;19931;-83
2021/09/09 00:39:05;;;;;;;;;;;;;;;20.80;100.00;98354.44;5059818;28;19928;-83
2021/09/09 00:41:33;;;;;;;;;;;;;;;20.94;100.00;98347.81;5041459;28;20260;-83
2021/09/09 00:44:01;;;;;;;;;;;;;;;20.91;100.00;98343.16;5092761;28;20394;-83
2021/09/09 00:46:31;;;;;;;;;;;;;;;20.90;100.00;98344.44;5074681;28;19985;-83
2021/09/09 00:48:59;;;;;;;;;;;;;;;21.06;100.00;98340.91;5074482;28;19928;-83
2021/09/09 00:51:26;;;;;;;;;;;;;;;20.75;100.00;98338.94;5092391;28;20002;-83
2021/09/09 00:53:53;;;;;;;;;;;;;;;20.16;100.00;98345.84;5046598;28;19991;-83
2021/09/09 00:56:20;;;;;;;;;;;;;;;20.82;100.00;98334.84;5054159;28;20044;-83
2021/09/09 00:58:48;;;;;;;;;;;;;;;20.93;100.00;98329.22;5074593;28;19947;-83
2021/09/09 01:01:16;;;;;;;;;;;;;;;20.98;100.00;98331.31;5041099;28;20018;-83
2021/09/09 01:03:43;;;;;;;;;;;;;;;20.99;100.00;98335.72;5074707;28;19974;-83
2021/09/09 01:06:10;;;;;;;;;;;;;;;20.92;100.00;98333.34;5092053;28;19932;-83
2021/09/09 01:08:37;;;;;;;;;;;;;;;20.35;100.00;98330.75;5074476;28;19924;-83
2021/09/09 01:11:07;;;;;;;;;;;;;;;19.93;100.00;98333.53;5092448;28;19928;-83
2021/09/09 01:13:34;;;;;;;;;;;;;;;20.32;100.00;98328.13;5037971;28;20401;-83
2021/09/09 01:16:01;;;;;;;;;;;;;;;20.52;100.00;98328.75;5041346;28;20355;-83
2021/09/09 01:18:29;;;;;;;;;;;;;;;20.52;100.00;98325.16;5074310;28;19946;-83
2021/09/09 01:20:56;;;;;;;;;;;;;;;20.04;100.00;98321.50;5074067;28;19931;-83
2021/09/09 01:23:24;;;;;;;;;;;;;;;20.03;100.00;98326.38;5052501;28;20071;-82
2021/09/09 01:25:52;;;;;;;;;;;;;;;20.53;100.00;98318.19;5092155;28;20314;-82
2021/09/09 01:28:20;;;;;;;;;;;;;;;20.48;100.00;98294.19;5059062;28;19924;-81
2021/09/09 01:30:47;;;;;;;;;;;;;;;20.44;100.00;98298.56;5077937;28;19931;-81
2021/09/09 01:33:14;;;;;;;;;;;;;;;20.28;100.00;98304.91;5077831;28;20355;-81
2021/09/09 01:35:42;;;;;;;;;;;;;;;19.73;100.00;98315.81;5095844;28;19924;-81
2021/09/09 01:38:20;;;;;;;;;;;;;;;20.20;100.00;98318.81;5077858;28;20012;-81
2021/09/09 01:40:47;;;;;;;;;;;;;;;20.37;100.00;98311.16;5077388;28;19924;-81
2021/09/09 01:43:14;;;;;;;;;;;;;;;20.41;100.00;98317.38;5077688;28;20163;-81
2021/09/09 01:45:41;;;;;;;;;;;;;;;20.57;100.00;98310.25;5077616;28;20299;-81
2021/09/09 01:48:08;;;;;;;;;;;;;;;19.76;100.00;98317.66;5060950;28;20287;-81
2021/09/09 01:50:35;;;;;;;;;;;;;;;19.96;100.00;98309.84;5095610;28;19924;-81
2021/09/09 01:53:02;;;;;;;;;;;;;;;19.84;100.00;98310.25;5081522;28;20016;-81
2021/09/09 01:55:29;;;;;;;;;;;;;;;19.07;100.00;98316.72;5077532;28;19947;-82
2021/09/09 01:57:56;;;;;;;;;;;;;;;19.76;100.00;98309.94;5095419;28;19935;-81
2021/09/09 02:00:23;;;;;;;;;;;;;;;20.23;100.00;98308.50;5077433;28;20283;-81
2021/09/09 02:02:50;;;;;;;;;;;;;;;20.43;100.00;98306.28;5060594;28;19978;-81
2021/09/09 02:05:17;;;;;;;;;;;;;;;20.42;100.00;98295.44;5095309;28;19950;-81
2021/09/09 02:07:44;;;;;;;;;;;;;;;20.38;100.00;98277.88;5077463;28;19928;-81
2021/09/09 02:10:19;;;;;;;;;;;;;;;20.33;100.00;98281.47;5077266;28;19924;-81
2021/09/09 02:12:47;;;;;;;;;;;;;;;20.18;100.00;98283.69;5077230;28;19935;-81
2021/09/09 02:15:14;;;;;;;;;;;;;;;20.36;100.00;98281.22;5094996;28;19928;-81
2021/09/09 02:17:41;;;;;;;;;;;;;;;20.34;100.00;98277.34;5060304;28;19924;-81
2021/09/09 02:20:11;;;;;;;;;;;;;;;20.12;100.00;98283.66;5094867;28;19924;-81
2021/09/09 02:22:38;;;;;;;;;;;;;;;20.12;100.00;98277.97;5027410;28;19924;-81
2021/09/09 02:25:05;;;;;;;;;;;;;;;20.18;100.00;98269.53;5094901;28;19955;-81
2021/09/09 02:27:32;;;;;;;;;;;;;;;20.12;100.00;98263.00;5094741;28;19924;-81
2021/09/09 02:29:59;;;;;;;;;;;;;;;19.95;100.00;98262.16;5095188;28;19931;-81
2021/09/09 02:32:26;;;;;;;;;;;;;;;20.07;100.00;98266.63;5094870;28;20387;-82
2021/09/09 02:34:53;;;;;;;;;;;;;;;20.22;100.00;98268.00;5076689;28;20327;-82
2021/09/09 02:37:20;;;;;;;;;;;;;;;20.26;100.00;98259.25;5094722;28;20388;-82
2021/09/09 02:39:47;;;;;;;;;;;;;;;20.10;100.00;98262.75;5076645;28;19973;-82
2021/09/09 02:42:14;;;;;;;;;;;;;;;20.08;100.00;98256.81;5094303;28;19928;-82
2021/09/09 02:44:42;;;;;;;;;;;;;;;19.53;100.00;98260.03;5076742;28;19950;-81
2021/09/09 02:47:12;;;;;;;;;;;;;;;19.58;100.00;98262.13;5046028;28;20326;-82
2021/09/09 02:49:38;;;;;;;;;;;;;;;19.29;100.00;98260.34;5055421;28;19924;-82
2021/09/09 02:52:05;;;;;;;;;;;;;;;19.19;100.00;98264.59;5060137;28;20380;-81
2021/09/09 02:54:33;;;;;;;;;;;;;;;19.61;100.00;98261.88;5094280;28;19932;-81
2021/09/09 02:57:00;;;;;;;;;;;;;;;19.96;100.00;98243.84;5042970;28;19946;-82
2021/09/09 02:59:27;;;;;;;;;;;;;;;20.08;100.00;98248.31;5094332;28;19928;-82
2021/09/09 03:01:53;;;;;;;;;;;;;;;20.19;100.00;98246.31;5094681;28;19977;-82
2021/09/09 03:04:21;;;;;;;;;;;;;;;20.27;100.00;98252.28;5060050;28;19963;-82
2021/09/09 03:06:48;;;;;;;;;;;;;;;20.21;100.00;98251.50;5076190;28;19924;-82
2021/09/09 03:09:15;;;;;;;;;;;;;;;20.02;100.00;98245.44;5076253;28;19974;-82
2021/09/09 03:11:42;;;;;;;;;;;;;;;19.97;100.00;98249.00;5059063;28;20413;-82
2021/09/09 03:14:09;;;;;;;;;;;;;;;20.11;100.00;98238.78;5094072;28;20000;-82
2021/09/09 03:16:36;;;;;;;;;;;;;;;19.90;100.00;98240.22;5079396;28;19932;-82
2021/09/09 03:19:03;;;;;;;;;;;;;;;20.12;100.00;98248.84;5075828;28;19924;-82
2021/09/09 03:21:30;;;;;;;;;;;;;;;20.19;100.00;98262.59;5052799;28;20383;-82
2021/09/09 03:23:57;;;;;;;;;;;;;;;20.05;100.00;98257.81;5063471;28;19934;-82
2021/09/09 03:26:24;;;;;;;;;;;;;;;20.22;100.00;98250.22;5043309;28;19925;-82
2021/09/09 03:28:51;;;;;;;;;;;;;;;20.28;100.00;98248.94;5086870;28;19999;-82
2021/09/09 03:31:18;;;;;;;;;;;;;;;20.35;100.00;98256.22;5075477;28;19951;-82
2021/09/09 03:33:45;;;;;;;;;;;;;;;20.39;100.00;98251.06;5093774;28;20299;-82
2021/09/09 03:36:12;;;;;;;;;;;;;;;19.93;100.00;98250.53;5093671;28;19931;-82
2021/09/09 03:38:39;;;;;;;;;;;;;;;19.32;100.00;98261.41;5093654;28;19924;-82
2021/09/09 03:41:08;;;;;;;;;;;;;;;19.44;100.00;98257.38;5093320;28;19976;-82
2021/09/09 03:43:35;;;;;;;;;;;;;;;19.87;100.00;98252.56;5075675;28;19928;-82
2021/09/09 03:46:02;;;;;;;;;;;;;;;19.99;100.00;98240.00;5075129;28;19924;-81
2021/09/09 03:48:29;;;;;;;;;;;;;;;20.09;100.00;98244.16;5093420;28;19924;-82
2021/09/09 03:50:56;;;;;;;;;;;;;;;20.15;100.00;98230.84;5058310;28;19928;-82
2021/09/09 03:53:24;;;;;;;;;;;;;;;20.17;100.00;98229.06;5075369;28;20286;-82
2021/09/09 03:55:51;;;;;;;;;;;;;;;19.99;100.00;98223.78;5063649;28;19932;-82
2021/09/09 03:58:19;;;;;;;;;;;;;;;19.55;100.00;98232.75;5072781;28;20375;-81
2021/09/09 04:00:45;;;;;;;;;;;;;;;19.51;100.00;98229.38;5075292;28;19928;-82
2021/09/09 04:03:13;;;;;;;;;;;;;;;19.91;100.00;98233.25;5056960;28;19924;-82
2021/09/09 04:05:40;;;;;;;;;;;;;;;20.09;100.00;98215.81;5093445;28;20205;-81
2021/09/09 04:08:07;;;;;;;;;;;;;;;19.86;100.00;98219.84;5074951;28;19982;-82
2021/09/09 04:10:35;;;;;;;;;;;;;;;19.35;100.00;98209.41;5075089;28;19924;-82
2021/09/09 04:13:02;;;;;;;;;;;;;;;18.67;100.00;98214.13;5093058;28;19931;-81
2021/09/09 04:15:28;;;;;;;;;;;;;;;19.33;100.00;98209.91;5074639;28;19924;-81
2021/09/09 04:17:55;;;;;;;;;;;;;;;19.73;100.00;98193.97;5092869;28;19931;-81
2021/09/09 04:20:22;;;;;;;;;;;;;;;19.84;100.00;98180.66;5057847;28;20007;-81
2021/09/09 04:22:49;;;;;;;;;;;;;;;19.85;100.00;98190.69;5074725;28;19978;-81
2021/09/09 04:25:16;;;;;;;;;;;;;;;19.28;100.00;98207.81;5074707;28;19924;-81
2021/09/09 04:27:43;;;;;;;;;;;;;;;19.31;100.00;98195.47;5092923;28;19928;-81
2021/09/09 04:30:10;;;;;;;;;;;;;;;19.32;100.00;98199.09;5061804;28;19955;-81
2021/09/09 04:32:37;;;;;;;;;;;;;;;19.05;100.00;98199.59;5077511;28;20014;-81
2021/09/09 04:35:05;;;;;;;;;;;;;;;19.42;100.00;98198.41;5092846;28;19924;-81
2021/09/09 04:37:34;;;;;;;;;;;;;;;19.27;100.00;98192.09;5057883;28;19935;-81
2021/09/09 04:40:01;;;;;;;;;;;;;;;18.97;100.00;98195.66;5072755;28;20019;-81
2021/09/09 04:42:28;;;;;;;;;;;;;;;18.70;100.00;98193.34;5025256;28;19963;-81
2021/09/09 04:44:56;;;;;;;;;;;;;;;18.83;100.00;98194.50;5042558;28;20027;-81
2021/09/09 04:47:23;;;;;;;;;;;;;;;19.13;100.00;98181.66;5086839;28;19928;-81
2021/09/09 04:49:49;;;;;;;;;;;;;;;19.35;100.00;98186.75;5074606;28;20355;-81
2021/09/09 04:52:17;;;;;;;;;;;;;;;19.58;100.00;98189.22;5092941;28;19925;-81
2021/09/09 04:54:44;;;;;;;;;;;;;;;19.45;100.00;98183.22;5043724;28;20492;-81
2021/09/09 04:57:12;;;;;;;;;;;;;;;19.45;100.00;98191.72;5092387;28;20333;-81
2021/09/09 04:59:40;;;;;;;;;;;;;;;19.51;100.00;98189.72;5054107;28;19930;-81
2021/09/09 05:02:07;;;;;;;;;;;;;;;19.47;100.00;98183.50;5070916;28;19967;-81
2021/09/09 05:04:34;;;;;;;;;;;;;;;19.60;100.00;98181.00;5096288;28;19924;-81
2021/09/09 05:07:01;;;;;;;;;;;;;;;18.79;100.00;98179.81;5061628;28;19930;-81
2021/09/09 05:09:28;;;;;;;;;;;;;;;18.41;100.00;98202.81;5078331;28;19952;-81
2021/09/09 05:11:55;;;;;;;;;;;;;;;18.60;100.00;98204.03;5077761;28;19935;-81
2021/09/09 05:14:22;;;;;;;;;;;;;;;19.20;100.00;98201.03;5077892;28;20015;-82
2021/09/09 05:16:50;;;;;;;;;;;;;;;19.11;100.00;98200.44;5096049;28;19924;-81
2021/09/09 05:19:17;;;;;;;;;;;;;;;19.49;100.00;98194.34;5078334;28;19936;-81
2021/09/09 05:21:44;;;;;;;;;;;;;;;19.58;100.00;98194.91;5092314;28;20456;-82
2021/09/09 05:24:11;;;;;;;;;;;;;;;19.44;100.00;98192.22;5096058;28;20328;-81
2021/09/09 05:26:38;;;;;;;;;;;;;;;19.30;100.00;98191.09;5044963;28;19924;-81
2021/09/09 05:29:05;;;;;;;;;;;;;;;19.38;100.00;98192.19;5073679;28;19940;-81
2021/09/09 05:31:32;;;;;;;;;;;;;;;19.39;100.00;98188.06;5068120;28;19973;-81
2021/09/09 05:33:59;;;;;;;;;;;;;;;19.53;100.00;98192.03;5077959;28;19924;-82
2021/09/09 05:36:26;;;;;;;;;;;;;;;19.48;100.00;98189.94;5078037;28;19932;-82
2021/09/09 05:38:54;;;;;;;;;;;;;;;19.57;100.00;98192.56;5096260;28;20275;-82
2021/09/09 05:41:21;;;;;;;;;;;;;;;19.43;100.00;98194.28;5095497;28;19928;-82
2021/09/09 05:43:48;;;;;;;;;;;;;;;19.55;100.00;98189.47;5077687;28;20146;-82
2021/09/09 05:46:15;;;;;;;;;;;;;;;19.77;100.00;98194.50;5095854;28;19985;-82
2021/09/09 05:48:42;;;;;;;;;;;;;;;19.70;100.00;98190.84;5061364;28;19924;-82
2021/09/09 05:51:10;;;;;;;;;;;;;;;19.43;100.00;98188.59;5077393;28;20304;-80
2021/09/09 05:53:37;;;;;;;;;;;;;;;19.49;100.00;98192.25;5077732;28;20228;-82
2021/09/09 05:56:04;;;;;;;;;;;;;;;19.72;100.00;98187.50;5095365;28;20005;-84
2021/09/09 05:58:31;;;;;;;;;;;;;;;19.68;100.00;98186.97;5061125;28;19928;-82
2021/09/09 06:00:59;;;;;;;;;;;;;;;19.73;100.00;98196.81;5076275;28;20394;-81
2021/09/09 06:03:29;;;;;;;;;;;;;;;19.53;100.00;98184.31;5092631;28;19925;-81
2021/09/09 06:06:04;;;;;;;;;;;;;;;19.63;100.00;98193.38;5070637;28;19924;-82
2021/09/09 06:08:32;;;;;;;;;;;;;;;19.68;100.00;98184.94;5078380;28;20015;-81
2021/09/09 06:10:59;;;;;;;;;;;;;;;19.78;100.00;98184.72;5055512;28;19928;-82
2021/09/09 06:13:26;;;;;;;;;;;;;;;19.99;100.00;98188.97;5056937;28;19936;-82
2021/09/09 06:15:53;;;;;;;;;;;;;;;20.02;100.00;98187.94;5073412;28;20018;-82
2021/09/09 06:18:20;;;;;;;;;;;;;;;20.13;100.00;98182.38;5038843;28;20322;-82
2021/09/09 06:20:47;;;;;;;;;;;;;;;20.02;100.00;98176.63;5059499;28;19970;-82
2021/09/09 06:23:14;;;;;;;;;;;;;;;20.18;100.00;98190.09;5080152;28;19927;-82
2021/09/09 06:25:42;;;;;;;;;;;;;;;20.07;100.00;98184.38;5074631;28;19978;-82
2021/09/09 06:28:10;;;;;;;;;;;;;;;19.84;100.00;98177.81;5089336;28;19966;-82
2021/09/09 06:30:37;;;;;;;;;;;;;;;20.07;100.00;98185.13;5068795;28;19931;-82
2021/09/09 06:33:04;;;;;;;;;;;;;;;20.34;100.00;98186.59;5094376;28;20019;-82
2021/09/09 06:35:31;;;;;;;;;;;;;;;20.53;100.00;98188.44;5072501;28;19924;-82
2021/09/09 06:37:58;;;;;;;;;;;;;;;20.66;100.00;98185.16;5094091;28;20381;-82
2021/09/09 06:40:25;;;;;;;;;;;;;;;20.79;100.00;98182.56;5093426;28;19967;-82
2021/09/09 06:42:52;;;;;;;;;;;;;;;20.83;100.00;98185.94;5058143;28;19928;-82
2021/09/09 06:45:19;;;;;;;;;;;;;;;20.80;100.00;98182.06;5088633;28;20436;-82
2021/09/09 06:47:46;;;;;;;;;;;;;;;20.76;100.00;98186.44;5074942;28;19946;-82
2021/09/09 06:50:13;;;;;;;;;;;;;;;20.90;100.00;98185.44;5093617;28;19928;-82
2021/09/09 06:52:41;;;;;;;;;;;;;;;20.89;100.00;98187.50;5076050;28;19996;-82
2021/09/09 06:55:09;;;;;;;;;;;;;;;21.00;100.00;98181.09;5093892;28;20407;-79
2021/09/09 06:57:38;;;;;;;;;;;;;;;21.16;100.00;98169.72;5091034;28;20457;-84
2021/09/09 07:00:11;;;;;;;;;;;;;;;21.18;100.00;98169.22;5060067;28;20490;-83
2021/09/09 07:03:20;;;;;;;;;;;;;;;21.29;100.00;98169.22;5075565;28;19931;-85
2021/09/09 07:25:03;;;;;;;;;;;;;;;22.18;100.00;98158.44;4983751;23;19972;-85
2021/09/09 07:27:54;;;;;;;;;;;;;;;22.25;100.00;98158.69;4920224;28;20069;-85
2021/09/09 07:30:25;;;;;;;;;;;;;;;22.23;100.00;98155.59;4941667;28;20329;-87
2021/09/09 07:32:53;;;;;;;;;;;;;;;22.27;100.00;98161.78;4943355;28;19982;-86
2021/09/09 07:35:20;;;;;;;;;;;;;;;22.36;100.00;98163.53;4941293;28;19926;-87
2021/09/09 07:37:48;;;;;;;;;;;;;;;22.38;100.00;98166.66;4951741;29;20009;-87
2021/09/09 07:40:15;;;;;;;;;;;;;;;22.41;100.00;98165.59;4966109;28;19930;-88
2021/09/09 07:42:42;;;;;;;;;;;;;;;22.19;100.00;98163.63;4941286;28;19965;-89
2021/09/09 07:45:10;;;;;;;;;;;;;;;22.25;100.00;98169.31;4957238;28;20377;-89
2021/09/09 07:47:37;;;;;;;;;;;;;;;21.99;100.00;98172.47;4955247;28;19926;-90
2021/09/09 07:50:07;;;;;;;;;;;;;;;21.98;100.00;98170.94;4932953;29;19926;-88
2021/09/09 07:52:35;;;;;;;;;;;;;;;21.94;100.00;98167.59;4935347;28;20017;-89
2021/09/09 07:55:03;;;;;;;;;;;;;;;22.01;100.00;98160.59;4925471;28;19926;-86
2021/09/09 07:57:31;;;;;;;;;;;;;;;22.08;100.00;98169.38;4925628;28;19926;-88
2021/09/09 07:59:58;;;;;;;;;;;;;;;21.82;100.00;98166.09;4948767;28;19930;-88
2021/09/09 08:02:25;;;;;;;;;;;;;;;21.84;100.00;98169.16;4965535;28;19927;-88
2021/09/09 08:04:52;;;;;;;;;;;;;;;21.68;100.00;98169.94;4946204;28;20433;-87
2021/09/09 08:07:19;;;;;;;;;;;;;;;21.91;100.00;98176.38;4972614;28;19932;-88
2021/09/09 08:09:47;;;;;;;;;;;;;;;22.15;100.00;98171.66;4932435;28;19974;-88
2021/09/09 08:12:14;;;;;;;;;;;;;;;21.95;100.00;98180.50;4909378;28;19926;-88
2021/09/09 08:14:42;;;;;;;;;;;;;;;21.90;100.00;98181.28;4940819;28;19926;-89
2021/09/09 08:17:09;;;;;;;;;;;;;;;21.92;100.00;98175.88;4941653;28;19926;-89
2021/09/09 08:19:36;;;;;;;;;;;;;;;21.95;100.00;98163.44;4956817;28;19933;-88
2021/09/09 08:22:03;;;;;;;;;;;;;;;22.20;100.00;98168.03;4942667;28;20314;-89
2021/09/09 08:24:30;;;;;;;;;;;;;;;22.78;100.00;98161.00;4937498;28;19927;-88
2021/09/09 08:26:58;;;;;;;;;;;;;;;23.26;100.00;98159.66;4938756;28;19931;-88
2021/09/09 08:29:25;;;;;;;;;;;;;;;23.58;100.00;98166.38;4937188;29;19926;-88
2021/09/09 08:31:53;;;;;;;;;;;;;;;24.49;100.00;98161.47;4949995;28;19948;-89
2021/09/09 08:34:20;;;;;;;;;;;;;;;24.78;100.00;98160.53;4925249;28;20036;-88
2021/09/09 08:36:47;;;;;;;;;;;;;;;25.35;100.00;98156.31;4940765;28;19935;-88
2021/09/09 08:39:15;;;;;;;;;;;;;;;25.15;100.00;98140.50;4940682;28;19926;-86
2021/09/09 08:41:47;;;;;;;;;;;;;;;24.87;100.00;98145.88;4923958;28;19926;-86
2021/09/09 08:44:15;;;;;;;;;;;;;;;25.16;100.00;98144.91;4955745;28;20295;-87
2021/09/09 08:46:44;;;;;;;;;;;;;;;25.02;100.00;98151.13;4955958;28;19926;-87
2021/09/09 08:49:12;;;;;;;;;;;;;;;25.19;100.00;98146.66;4940530;28;20398;-89
2021/09/09 08:51:39;;;;;;;;;;;;;;;24.57;100.00;98150.94;4956739;28;19934;-89
2021/09/09 08:54:07;;;;;;;;;;;;;;;23.66;100.00;98150.22;4940436;28;19972;-89
2021/09/09 08:56:34;;;;;;;;;;;;;;;23.31;100.00;98161.69;4924870;28;19933;-88
2021/09/09 08:59:01;;;;;;;;;;;;;;;23.96;100.00;98160.28;4940095;28;19976;-87
2021/09/09 09:01:29;;;;;;;;;;;;;;;23.51;100.00;98161.25;4924852;28;19930;-89
2021/09/09 09:03:57;;;;;;;;;;;;;;;23.85;100.00;98154.69;4955936;28;19926;-88
2021/09/09 09:06:25;;;;;;;;;;;;;;;23.81;100.00;98153.44;4939768;28;19933;-88
2021/09/09 09:08:59;;;;;;;;;;;;;;;24.36;100.00;98158.50;4939475;28;19934;-88
2021/09/09 09:11:34;;;;;;;;;;;;;;;24.75;100.00;98162.41;4937519;29;19927;-89
2021/09/09 09:14:02;;;;;;;;;;;;;;;23.91;100.00;98160.31;4896386;29;19934;-88
2021/09/09 09:16:30;;;;;;;;;;;;;;;24.27;100.00;98159.66;4939459;28;19940;-89
2021/09/09 09:18:58;;;;;;;;;;;;;;;23.88;100.00;98155.69;4949461;28;20358;-89
2021/09/09 09:21:26;;;;;;;;;;;;;;;25.03;100.00;98153.44;4938754;28;19949;-89
2021/09/09 09:23:55;;;;;;;;;;;;;;;24.78;100.00;98149.13;4939936;28;19926;-87
2021/09/09 09:26:24;;;;;;;;;;;;;;;25.38;100.00;98138.84;4942865;28;19930;-89
2021/09/09 09:28:52;;;;;;;;;;;;;;;25.78;100.00;98149.03;4938292;28;20021;-87
2021/09/09 09:31:27;;;;;;;;;;;;;;;26.13;100.00;98150.72;4924617;28;19930;-86
2021/09/09 09:52:29;;;;;;;;;;;;;;;;;;;;;
2021/09/09 09:57:16;;;;;;;;;;;;;;;;;;;;;
2021/09/09 10:06:44;;;;;;;;;;;;;;;26.20;100.00;98150.06;4848027;29;19935;-87
2021/09/09 10:34:23;;;;;;;;;;;;;;;25.78;100.00;98143.31;4837090;29;19938;-89
2021/09/09 10:36:52;;;;;;;;;;;;;;;25.47;100.00;98147.00;4810107;29;20085;-87
2021/09/09 11:15:00;;;;;;;;;;;;;;;25.87;100.00;98128.56;4677838;25;20305;-87
2021/09/09 11:17:28;;;;;;;;;;;;;;;25.87;100.00;98133.53;4667232;30;19943;-88
2021/09/09 11:19:59;;;;;;;;;;;;;;;25.83;100.00;98133.84;4650413;30;20023;-88
2021/09/09 12:21:24;;;;;;;;;;;;;;;26.18;100.00;98090.50;4824350;25;19938;-88
2021/09/09 12:23:55;;;;;;;;;;;;;;;26.04;100.00;98086.13;4649436;30;20410;-86
2021/09/09 12:26:22;;;;;;;;;;;;;;;25.73;100.00;98089.06;4644609;30;19932;-88
2021/09/09 12:28:49;;;;;;;;;;;;;;;25.98;100.00;98085.47;4652944;30;19932;-88
2021/09/09 12:31:31;;;;;;;;;;;;;;;26.22;100.00;98082.34;4664356;30;20207;-86
2021/09/09 12:33:59;;;;;;;;;;;;;;;24.89;100.00;98083.25;4664182;30;19974;-88
2021/09/09 12:36:37;;;;;;;;;;;;;;;25.69;100.00;98092.25;4649899;30;19938;-89
2021/09/09 12:39:06;;;;;;;;;;;;;;;26.19;100.00;98074.84;4662376;30;20390;-89
2021/09/09 12:41:45;;;;;;;;;;;;;;;25.91;100.00;98068.94;4633078;30;19932;-87
2021/09/09 12:44:19;;;;;;;;;;;;;;;26.60;100.00;98070.59;4649515;30;20294;-89
2021/09/09 12:46:48;;;;;;;;;;;;;;;27.32;100.00;98066.75;4649939;30;19932;-84
2021/09/09 12:49:22;;;;;;;;;;;;;;;27.46;100.00;98063.22;4621721;30;19982;-85
2021/09/09 12:51:49;;;;;;;;;;;;;;;27.82;100.00;98054.69;4632534;30;19936;-87
2021/09/09 12:54:17;;;;;;;;;;;;;;;26.72;100.00;98064.03;4649880;30;19939;-86
2021/09/09 12:56:46;;;;;;;;;;;;;;;26.93;100.00;98061.22;4629969;30;19932;-85
2021/09/09 12:59:13;;;;;;;;;;;;;;;27.18;100.00;98065.25;4659289;30;20419;-87
2021/09/09 13:01:40;;;;;;;;;;;;;;;26.95;100.00;98056.44;4641152;30;20049;-85
2021/09/09 13:04:08;;;;;;;;;;;;;;;27.42;100.00;98059.94;4679197;30;19931;-87
2021/09/09 13:06:36;;;;;;;;;;;;;;;27.42;100.00;98062.03;4647190;30;19982;-86
2021/09/09 13:09:03;;;;;;;;;;;;;;;27.01;100.00;98059.16;4630115;30;20013;-85
2021/09/09 13:11:30;;;;;;;;;;;;;;;27.40;100.00;98053.25;4680123;30;19936;-84
2021/09/09 13:14:01;;;;;;;;;;;;;;;27.73;100.00;98053.09;4645332;30;19931;-91
2021/09/09 13:16:29;;;;;;;;;;;;;;;27.11;100.00;98051.63;4655773;30;19954;-91
2021/09/09 13:19:22;;;;;;;;;;;;;;;27.61;100.00;98039.63;4639436;30;19931;-90
2021/09/09 13:21:50;;;;;;;;;;;;;;;27.68;100.00;98038.91;4668430;30;19939;-90
2021/09/09 13:24:17;;;;;;;;;;;;;;;27.04;100.00;98038.75;4667573;30;19940;-87
2021/09/09 13:26:44;;;;;;;;;;;;;;;26.20;100.00;98036.31;4668855;30;20449;-86
2021/09/09 13:29:11;;;;;;;;;;;;;;;27.00;100.00;98031.84;4654906;30;20009;-83
2021/09/09 13:31:43;;;;;;;;;;;;;;;27.34;100.00;98026.81;4669237;30;19931;-84
2021/09/09 13:34:10;;;;;;;;;;;;;;;27.32;100.00;98024.50;4655028;30;19932;-84
2021/09/09 13:36:41;;;;;;;;;;;;;;;27.12;100.00;98022.41;4683266;30;20005;-82
2021/09/09 13:39:18;;;;;;;;;;;;;;;27.38;100.00;98021.50;4670622;30;19933;-82
2021/09/09 13:41:45;;;;;;;;;;;;;;;28.07;100.00;98018.47;4691382;30;20397;-81
2021/09/09 13:44:12;;;;;;;;;;;;;;;28.27;100.00;98014.72;4668316;30;20012;-81
2021/09/09 13:46:39;;;;;;;;;;;;;;;28.29;100.00;98009.19;4684014;30;20455;-81
2021/09/09 13:49:06;;;;;;;;;;;;;;;27.26;100.00;98012.44;4668701;30;20006;-81
2021/09/09 13:51:33;;;;;;;;;;;;;;;27.08;100.00;98019.09;4658001;30;19974;-81
2021/09/09 13:54:00;;;;;;;;;;;;;;;26.25;100.00;98026.06;4669315;30;19931;-81
2021/09/09 13:56:27;;;;;;;;;;;;;;;26.03;100.00;98021.63;4668865;30;19935;-81
2021/09/09 13:58:54;;;;;;;;;;;;;;;25.76;100.00;98031.53;4684481;30;19940;-83
2021/09/09 14:01:22;;;;;;;;;;;;;;;26.07;100.00;98027.75;4654008;30;20018;-82
2021/09/09 14:03:51;;;;;;;;;;;;;;;26.05;100.00;98021.06;4653758;30;19987;-81
2021/09/09 14:06:21;;;;;;;;;;;;;;;26.41;100.00;98019.97;4683746;30;19932;-82
2021/09/09 14:08:48;;;;;;;;;;;;;;;26.73;100.00;98007.53;4654570;30;19946;-85
2021/09/09 14:11:15;;;;;;;;;;;;;;;26.74;100.00;98018.44;4683975;30;19983;-85
2021/09/09 14:13:43;;;;;;;;;;;;;;;25.18;100.00;98032.88;4644608;30;19947;-85
2021/09/09 14:16:10;;;;;;;;;;;;;;;25.01;100.00;98036.03;4669041;30;19931;-86
2021/09/09 14:18:37;;;;;;;;;;;;;;;25.26;100.00;98031.69;4684331;30;19939;-85
2021/09/09 14:21:04;;;;;;;;;;;;;;;25.11;100.00;98044.97;4669037;30;20360;-86
2021/09/09 14:23:31;;;;;;;;;;;;;;;24.47;100.00;98079.19;4654441;30;20027;-86
2021/09/09 14:25:58;;;;;;;;;;;;;;;23.85;100.00;98069.13;4654688;30;19938;-86
2021/09/09 14:28:26;;;;;;;;;;;;;;;22.75;100.00;98073.78;4668675;30;20022;-86
2021/09/09 14:30:53;;;;;;;;;;;;;;;22.31;100.00;98082.59;4654689;30;19936;-85
2021/09/09 14:33:21;;;;;;;;;;;;;;;21.87;100.00;98099.88;4668488;30;20305;-85
2021/09/09 14:35:47;;;;;;;;;;;;;;;21.96;100.00;98110.94;4653918;30;19946;-86
2021/09/09 14:38:15;;;;;;;;;;;;;;;22.05;100.00;98110.69;4654349;30;19931;-86
2021/09/09 14:40:42;;;;;;;;;;;;;;;21.57;100.00;98115.97;4647801;30;19932;-86
2021/09/09 14:43:09;;;;;;;;;;;;;;;21.31;100.00;98116.28;4668236;30;19936;-87
2021/09/09 14:45:36;;;;;;;;;;;;;;;21.33;100.00;98113.69;4653775;30;19931;-86
2021/09/09 14:48:04;;;;;;;;;;;;;;;21.60;100.00;98123.44;4651931;30;20309;-86
2021/09/09 14:50:31;;;;;;;;;;;;;;;21.83;100.00;98127.81;4667342;30;19932;-88
2021/09/09 14:52:58;;;;;;;;;;;;;;;21.87;100.00;98139.69;4668046;30;19931;-87
2021/09/09 14:55:25;;;;;;;;;;;;;;;22.00;100.00;98128.53;4660808;30;19931;-87
2021/09/09 14:57:52;;;;;;;;;;;;;;;22.23;100.00;98132.06;4653940;30;20405;-87
2021/09/09 15:00:19;;;;;;;;;;;;;;;22.19;100.00;98126.63;4646508;30;20487;-86
2021/09/09 15:02:46;;;;;;;;;;;;;;;22.40;100.00;98127.81;4654091;30;19938;-86
2021/09/09 15:05:13;;;;;;;;;;;;;;;22.55;100.00;98131.13;4639686;30;19982;-87
2021/09/09 15:07:40;;;;;;;;;;;;;;;22.53;100.00;98116.66;4683103;30;20405;-86
2021/09/09 15:10:08;;;;;;;;;;;;;;;22.43;100.00;98118.22;4682580;30;19932;-87
2021/09/09 15:12:35;;;;;;;;;;;;;;;22.54;100.00;98112.50;4667826;30;19935;-86
2021/09/09 15:15:03;;;;;;;;;;;;;;;22.54;100.00;98112.50;4667895;30;19959;-87
2021/09/09 15:17:30;;;;;;;;;;;;;;;22.42;100.00;98116.69;4633471;30;20030;-87
2021/09/09 15:19:58;;;;;;;;;;;;;;;22.53;100.00;98116.66;4667442;30;19954;-85
2021/09/09 15:22:25;;;;;;;;;;;;;;;22.67;100.00;98114.75;4682513;30;19932;-86
2021/09/09 15:24:52;;;;;;;;;;;;;;;22.73;100.00;98124.78;4676041;30;20425;-88
2021/09/09 15:27:19;;;;;;;;;;;;;;;22.83;100.00;98122.41;4667570;30;19932;-88
2021/09/09 15:29:49;;;;;;;;;;;;;;;22.65;100.00;98129.53;4679543;30;19939;-88